createdAt,value
2023-02-07T00:01:41.368Z,74.97
2023-02-07T00:04:09.786Z,74.82
2023-02-07T00:06:38.640Z,74.23
2023-02-07T00:09:10.082Z,73.04
2023-02-07T00:11:40.901Z,73.90
2023-02-07T00:14:11.463Z,73.76
2023-02-07T00:16:40.166Z,74.37
2023-02-07T00:19:09.141Z,74.75
2023-02-07T00:21:38.126Z,74.52
2023-02-07T00:24:08.535Z,74.56
2023-02-07T00:26:37.111Z,74.36
2023-02-07T00:29:06.517Z,74.93
2023-02-07T00:31:36.753Z,75.01
2023-02-07T00:34:08.344Z,74.81
2023-02-07T00:36:38.678Z,75.07
2023-02-07T00:39:13.882Z,74.24
2023-02-07T00:41:42.980Z,74.38
2023-02-07T00:44:12.599Z,74.53
2023-02-07T00:46:41.086Z,74.51
2023-02-07T00:49:10.019Z,74.97
2023-02-07T00:51:38.966Z,74.78
2023-02-07T00:54:09.541Z,74.10
2023-02-07T00:56:37.996Z,74.43
2023-02-07T00:59:06.487Z,74.64
2023-02-07T01:01:37.265Z,74.46
2023-02-07T01:04:06.442Z,75.04
2023-02-07T01:06:37.089Z,75.53
2023-02-07T01:09:08.617Z,75.35
2023-02-07T01:11:37.060Z,75.24
2023-02-07T01:14:05.349Z,75.20
2023-02-07T01:16:35.810Z,74.83
2023-02-07T01:19:06.562Z,74.98
2023-02-07T01:21:35.347Z,75.46
2023-02-07T01:24:05.517Z,75.37
2023-02-07T01:26:38.066Z,75.05
2023-02-07T01:29:07.024Z,75.03
2023-02-07T01:31:36.943Z,75.27
2023-02-07T01:34:05.915Z,75.29
2023-02-07T01:36:34.313Z,75.29
2023-02-07T01:39:03.876Z,75.52
2023-02-07T01:41:37.236Z,75.57
2023-02-07T01:44:08.906Z,75.97
2023-02-07T01:46:38.286Z,76.19
2023-02-07T01:49:13.509Z,76.59
2023-02-07T01:51:48.544Z,76.93
2023-02-07T01:54:18.389Z,76.74
2023-02-07T01:56:55.209Z,76.80
2023-02-07T01:59:25.720Z,77.26
2023-02-07T02:01:54.171Z,76.88
2023-02-07T02:04:22.960Z,76.52
2023-02-07T02:06:51.695Z,76.47
2023-02-07T02:09:19.994Z,76.36
2023-02-07T02:12:13.017Z,75.96
2023-02-07T02:15:09.025Z,75.65
2023-02-07T02:17:54.995Z,75.50
2023-02-07T02:21:16.710Z,75.15
2023-02-07T02:24:17.581Z,74.94
2023-02-07T02:26:59.872Z,74.85
2023-02-07T02:30:33.623Z,74.89
2023-02-07T02:33:32.227Z,75.57
2023-02-07T02:36:12.013Z,76.11
2023-02-07T02:38:47.148Z,76.09
2023-02-07T02:41:20.563Z,75.80
2023-02-07T02:43:55.667Z,75.98
2023-02-07T02:46:26.408Z,75.99
2023-02-07T02:48:59.507Z,75.79
2023-02-07T02:51:30.437Z,76.33
2023-02-07T02:54:01.135Z,76.70
2023-02-07T02:57:03.905Z,76.56
2023-02-07T02:59:56.138Z,76.74
2023-02-07T03:02:34.308Z,77.08
2023-02-07T03:05:29.631Z,77.10
2023-02-07T03:08:11.766Z,77.01
2023-02-07T03:10:50.466Z,77.09
2023-02-07T03:13:24.768Z,76.99
2023-02-07T03:16:06.051Z,77.14
2023-02-07T03:18:46.461Z,77.28
2023-02-07T03:21:22.261Z,77.17
2023-02-07T03:23:53.707Z,77.43
2023-02-07T03:26:25.165Z,77.57
2023-02-07T03:28:57.678Z,77.99
2023-02-07T03:31:28.764Z,77.96
2023-02-07T03:34:04.432Z,78.26
2023-02-07T03:36:41.623Z,78.01
2023-02-07T03:39:10.390Z,77.61
2023-02-07T03:41:45.883Z,78.10
2023-02-07T03:44:18.152Z,78.22
2023-02-07T03:46:46.664Z,78.20
2023-02-07T03:49:17.570Z,78.08
2023-02-07T03:51:47.796Z,78.30
2023-02-07T03:54:16.519Z,77.82
2023-02-07T03:56:45.380Z,78.04
2023-02-07T03:59:14.064Z,77.70
2023-02-07T04:01:43.367Z,77.50
2023-02-07T04:04:12.904Z,77.97
2023-02-07T04:06:41.768Z,78.30
2023-02-07T04:09:12.013Z,77.58
2023-02-07T04:11:40.710Z,77.52
2023-02-07T04:14:09.159Z,78.08
2023-02-07T04:16:37.570Z,77.71
2023-02-07T04:19:06.045Z,77.62
2023-02-07T04:21:35.048Z,77.40
2023-02-07T04:24:03.821Z,77.40
2023-02-07T04:26:33.529Z,77.74
2023-02-07T04:29:02.556Z,77.93
2023-02-07T04:31:31.037Z,77.77
2023-02-07T04:33:59.415Z,78.23
2023-02-07T04:36:29.555Z,77.90
2023-02-07T04:38:58.271Z,78.24
2023-02-07T04:41:26.594Z,78.24
2023-02-07T04:43:57.068Z,78.04
2023-02-07T04:46:25.570Z,78.09
2023-02-07T04:48:54.037Z,78.31
2023-02-07T04:51:22.398Z,78.32
2023-02-07T04:53:50.726Z,78.04
2023-02-07T04:56:19.058Z,78.25
2023-02-07T04:58:47.931Z,77.92
2023-02-07T05:01:18.069Z,78.41
2023-02-07T05:03:46.474Z,77.53
2023-02-07T05:06:17.748Z,77.73
2023-02-07T05:08:46.195Z,77.70
2023-02-07T05:11:15.185Z,77.91
2023-02-07T05:13:44.040Z,78.30
2023-02-07T05:16:12.396Z,77.81
2023-02-07T05:18:42.325Z,77.62
2023-02-07T05:21:11.411Z,77.87
2023-02-07T05:23:39.764Z,78.04
2023-02-07T05:26:08.127Z,77.56
2023-02-07T05:28:36.480Z,77.43
2023-02-07T05:31:05.137Z,77.57
2023-02-07T05:33:32.515Z,77.98
2023-02-07T05:36:03.036Z,78.49
2023-02-07T05:38:31.927Z,78.11
2023-02-07T05:41:00.268Z,78.58
2023-02-07T05:43:28.870Z,78.10
2023-02-07T05:45:57.297Z,78.16
2023-02-07T05:48:25.690Z,78.00
2023-02-07T05:50:54.145Z,77.58
2023-02-07T05:53:23.925Z,77.42
2023-02-07T05:55:53.421Z,76.73
2023-02-07T05:58:21.723Z,77.45
2023-02-07T06:00:50.070Z,77.69
2023-02-07T06:03:18.450Z,77.56
2023-02-07T06:05:46.780Z,78.15
2023-02-07T06:08:15.283Z,78.63
2023-02-07T06:10:44.987Z,78.54
2023-02-07T06:13:13.510Z,78.64
2023-02-07T06:15:42.162Z,78.15
2023-02-07T06:18:10.766Z,78.15
2023-02-07T06:20:39.205Z,77.95
2023-02-07T06:23:07.780Z,77.49
2023-02-07T06:25:36.403Z,77.27
2023-02-07T06:28:06.645Z,77.34
2023-02-07T06:30:35.097Z,77.09
2023-02-07T06:33:03.521Z,76.83
2023-02-07T06:35:31.842Z,76.80
2023-02-07T06:38:00.324Z,77.35
2023-02-07T06:40:28.711Z,78.17
2023-02-07T06:42:57.200Z,78.60
2023-02-07T06:45:26.887Z,78.13
2023-02-07T06:47:55.435Z,78.49
2023-02-07T06:50:23.911Z,77.97
2023-02-07T06:52:52.679Z,78.06
2023-02-07T06:55:20.918Z,78.02
2023-02-07T06:57:49.419Z,78.38
2023-02-07T07:00:20.660Z,78.24
2023-02-07T07:02:50.638Z,77.87
2023-02-07T07:05:19.394Z,77.49
2023-02-07T07:07:47.773Z,78.42
2023-02-07T07:10:16.700Z,78.35
2023-02-07T07:12:47.367Z,77.71
2023-02-07T07:15:16.380Z,77.02
2023-02-07T07:17:44.934Z,77.56
2023-02-07T07:20:14.799Z,77.55
2023-02-07T07:22:43.497Z,77.90
2023-02-07T07:25:12.497Z,77.36
2023-02-07T07:27:40.897Z,77.04
2023-02-07T07:30:11.437Z,76.41
2023-02-07T07:32:40.125Z,76.98
2023-02-07T07:35:09.400Z,76.03
2023-02-07T07:37:39.093Z,76.20
2023-02-07T07:40:08.906Z,76.05
2023-02-07T07:42:37.478Z,76.60
2023-02-07T07:45:22.454Z,76.38
2023-02-07T07:47:51.064Z,75.95
2023-02-07T07:50:19.903Z,75.55
2023-02-07T07:52:49.762Z,75.90
2023-02-07T07:55:18.263Z,75.27
2023-02-07T07:57:46.803Z,75.14
2023-02-07T08:00:16.237Z,75.34
2023-02-07T08:02:44.917Z,75.20
2023-02-07T08:05:13.948Z,75.37
2023-02-07T08:07:42.430Z,75.86
2023-02-07T08:10:12.193Z,75.75
2023-02-07T08:12:42.652Z,75.70
2023-02-07T08:15:13.831Z,76.26
2023-02-07T08:17:42.460Z,75.86
2023-02-07T08:20:12.556Z,76.28
2023-02-07T08:22:41.035Z,76.28
2023-02-07T08:25:11.416Z,75.63
2023-02-07T08:27:40.470Z,74.02
2023-02-07T08:30:12.013Z,74.39
2023-02-07T08:32:41.012Z,74.87
2023-02-07T08:35:10.378Z,74.39
2023-02-07T08:37:39.676Z,74.00
2023-02-07T08:40:11.234Z,74.12
2023-02-07T08:42:39.627Z,73.58
2023-02-07T08:45:09.514Z,73.14
2023-02-07T08:47:38.063Z,73.27
2023-02-07T08:50:08.103Z,73.22
2023-02-07T08:52:36.667Z,73.12
2023-02-07T08:55:05.712Z,72.81
2023-02-07T08:57:35.558Z,73.54
2023-02-07T09:00:05.332Z,74.21
2023-02-07T09:02:34.130Z,74.23
2023-02-07T09:05:03.117Z,72.63
2023-02-07T09:07:31.657Z,72.22
2023-02-07T09:09:59.890Z,71.98
2023-02-07T09:12:28.224Z,71.91
2023-02-07T09:14:58.190Z,71.79
2023-02-07T09:17:26.854Z,70.48
2023-02-07T09:19:55.392Z,70.33
2023-02-07T09:22:23.824Z,70.47
2023-02-07T09:24:52.182Z,71.56
2023-02-07T09:27:20.614Z,72.14
2023-02-07T09:29:48.904Z,72.69
2023-02-07T09:32:18.758Z,71.78
2023-02-07T09:34:47.191Z,72.05
2023-02-07T09:37:15.720Z,72.55
2023-02-07T09:39:44.627Z,72.13
2023-02-07T09:42:24.243Z,72.60
2023-02-07T09:45:00.949Z,71.98
2023-02-07T09:47:32.674Z,72.08
2023-02-07T09:50:05.049Z,72.48
2023-02-07T09:52:38.856Z,72.28
2023-02-07T09:55:16.548Z,72.26
2023-02-07T09:57:49.412Z,72.44
2023-02-07T10:00:24.874Z,72.19
2023-02-07T10:03:00.060Z,71.97
2023-02-07T10:05:40.284Z,71.34
2023-02-07T10:08:12.893Z,71.37
2023-02-07T10:10:46.259Z,71.34
2023-02-07T10:13:31.065Z,72.27
2023-02-07T10:16:21.059Z,70.68
2023-02-07T10:18:56.808Z,71.01
2023-02-07T10:21:34.765Z,71.39
2023-02-07T10:24:33.052Z,71.03
2023-02-07T10:27:10.388Z,71.01
2023-02-07T10:29:57.768Z,70.65
2023-02-07T10:32:31.381Z,70.35
2023-02-07T10:35:06.387Z,70.67
2023-02-07T10:37:38.657Z,70.88
2023-02-07T10:40:15.616Z,70.55
2023-02-07T10:42:49.529Z,70.01
2023-02-07T10:45:19.712Z,70.59
2023-02-07T10:47:48.352Z,69.72
2023-02-07T10:50:29.828Z,69.60
2023-02-07T10:53:00.713Z,70.01
2023-02-07T10:55:40.113Z,69.17
2023-02-07T10:58:22.874Z,68.40
2023-02-07T11:00:55.013Z,70.07
2023-02-07T11:03:25.370Z,72.43
2023-02-07T11:05:59.711Z,72.30
2023-02-07T11:08:30.612Z,69.57
2023-02-07T11:11:01.436Z,69.06
2023-02-07T11:13:32.658Z,68.27
2023-02-07T11:16:06.145Z,69.08
2023-02-07T11:18:45.522Z,68.22
2023-02-07T11:21:32.151Z,68.04
2023-02-07T11:24:05.543Z,67.89
2023-02-07T11:26:36.792Z,68.05
2023-02-07T11:29:15.307Z,67.22
2023-02-07T11:31:46.163Z,67.06
2023-02-07T11:34:45.850Z,66.83
2023-02-07T11:37:27.081Z,65.45
2023-02-07T11:39:57.845Z,65.19
2023-02-07T11:42:32.301Z,64.71
2023-02-07T11:45:06.137Z,64.08
2023-02-07T11:47:38.174Z,62.40
2023-02-07T11:50:08.838Z,60.86
2023-02-07T11:52:40.909Z,61.72
2023-02-07T11:55:19.487Z,61.04
2023-02-07T11:57:48.372Z,60.00
2023-02-07T12:00:25.779Z,58.83
2023-02-07T12:03:02.909Z,58.24
2023-02-07T12:05:36.692Z,58.90
2023-02-07T12:08:13.584Z,57.06
2023-02-07T12:10:47.014Z,56.16
2023-02-07T12:13:19.859Z,55.83
2023-02-07T12:15:52.917Z,55.16
2023-02-07T12:18:30.650Z,55.90
2023-02-07T12:21:06.135Z,55.12
2023-02-07T12:23:46.972Z,54.25
2023-02-07T12:26:25.144Z,54.20
2023-02-07T12:29:13.843Z,53.42
2023-02-07T12:31:52.562Z,53.05
2023-02-07T12:34:29.210Z,51.97
2023-02-07T12:37:05.561Z,51.39
2023-02-07T12:39:43.172Z,51.77
2023-02-07T12:42:36.890Z,53.19
2023-02-07T12:45:07.157Z,52.75
2023-02-07T12:47:45.760Z,50.37
2023-02-07T12:50:31.414Z,49.21
2023-02-07T12:53:12.346Z,50.13
2023-02-07T12:55:55.849Z,49.62
2023-02-07T12:58:49.758Z,49.96
2023-02-07T13:01:25.871Z,49.08
2023-02-07T13:04:33.974Z,47.41
2023-02-07T13:07:10.602Z,47.27
2023-02-07T13:09:46.412Z,46.05
2023-02-07T13:12:20.860Z,45.01
2023-02-07T13:15:06.844Z,46.30
2023-02-07T13:17:42.715Z,44.46
2023-02-07T13:20:31.251Z,44.05
2023-02-07T13:23:02.758Z,43.09
2023-02-07T13:25:33.430Z,41.23
2023-02-07T13:28:08.159Z,41.81
2023-02-07T13:30:37.736Z,40.98
2023-02-07T13:33:14.049Z,39.77
2023-02-07T13:35:43.058Z,39.63
2023-02-07T13:38:24.688Z,39.13
2023-02-07T13:41:03.049Z,38.24
2023-02-07T13:43:50.867Z,37.92
2023-02-07T13:46:47.634Z,36.60
2023-02-07T13:49:23.313Z,35.70
2023-02-07T13:52:00.623Z,36.34
2023-02-07T13:54:41.217Z,37.13
2023-02-07T13:57:39.784Z,35.64
2023-02-07T14:00:19.388Z,35.30
2023-02-07T14:02:52.098Z,33.34
2023-02-07T14:05:28.142Z,34.37
2023-02-07T14:08:01.115Z,34.36
2023-02-07T14:10:51.959Z,34.05
2023-02-07T14:13:30.623Z,32.94
2023-02-07T14:16:12.064Z,31.83
2023-02-07T14:18:47.278Z,32.11
2023-02-07T14:21:33.407Z,31.84
2023-02-07T14:24:32.309Z,32.03
2023-02-07T14:27:05.958Z,32.60
2023-02-07T14:29:57.316Z,31.92
2023-02-07T14:33:11.730Z,31.69
2023-02-07T14:36:04.164Z,32.68
2023-02-07T14:38:38.022Z,32.89
2023-02-07T14:41:11.789Z,31.64
2023-02-07T14:44:03.304Z,32.25
2023-02-07T14:46:40.264Z,31.07
2023-02-07T14:49:18.121Z,32.37
2023-02-07T14:51:49.824Z,31.69
2023-02-07T14:54:26.673Z,30.05
2023-02-07T14:57:06.107Z,31.10
2023-02-07T14:59:40.380Z,31.22
2023-02-07T15:02:31.628Z,31.00
2023-02-07T15:05:21.181Z,31.57
2023-02-07T15:07:56.571Z,31.13
2023-02-07T15:10:29.070Z,30.78
2023-02-07T15:12:58.124Z,31.95
2023-02-07T15:15:30.623Z,31.30
2023-02-07T15:18:02.326Z,30.98
2023-02-07T15:20:34.416Z,31.10
2023-02-07T15:23:07.277Z,31.35
2023-02-07T15:25:36.575Z,32.07
2023-02-07T15:28:12.968Z,32.36
2023-02-07T15:31:01.052Z,32.25
2023-02-07T15:33:36.593Z,32.71
2023-02-07T15:36:28.804Z,31.33
2023-02-07T15:39:00.995Z,32.08
2023-02-07T15:41:29.938Z,31.65
2023-02-07T15:44:01.453Z,32.51
2023-02-07T15:46:49.413Z,33.09
2023-02-07T15:49:28.569Z,33.70
2023-02-07T15:52:05.054Z,32.15
2023-02-07T15:54:39.583Z,32.25
2023-02-07T15:57:17.988Z,33.13
2023-02-07T15:59:46.225Z,33.26
2023-02-07T16:02:26.084Z,33.76
2023-02-07T16:04:54.459Z,33.80
2023-02-07T16:07:26.268Z,34.38
2023-02-07T16:09:54.649Z,34.65
2023-02-07T16:12:32.424Z,34.29
2023-02-07T16:15:02.743Z,34.16
2023-02-07T16:17:42.343Z,35.26
2023-02-07T16:20:15.668Z,35.40
2023-02-07T16:22:46.320Z,35.85
2023-02-07T16:25:19.274Z,35.91
2023-02-07T16:27:50.214Z,35.54
2023-02-07T16:30:22.287Z,35.95
2023-02-07T16:32:50.961Z,36.67
2023-02-07T16:35:22.207Z,37.08
2023-02-07T16:37:52.910Z,37.29
2023-02-07T16:40:22.322Z,37.86
2023-02-07T16:42:51.527Z,37.78
2023-02-07T16:45:22.452Z,38.05
2023-02-07T16:47:50.845Z,38.42
2023-02-07T16:50:21.875Z,38.62
2023-02-07T16:52:54.713Z,38.84
2023-02-07T16:55:22.980Z,39.22
2023-02-07T16:57:51.304Z,39.52
2023-02-07T17:00:22.677Z,39.76
2023-02-07T17:02:52.764Z,39.85
2023-02-07T17:05:22.960Z,39.68
2023-02-07T17:07:52.626Z,39.67
2023-02-07T17:10:25.111Z,39.75
2023-02-07T17:12:54.254Z,39.72
2023-02-07T17:15:23.119Z,40.11
2023-02-07T17:17:53.046Z,40.37
2023-02-07T17:20:25.594Z,40.62
2023-02-07T17:22:56.482Z,40.89
2023-02-07T17:25:29.268Z,41.57
2023-02-07T17:27:58.951Z,41.60
2023-02-07T17:30:30.224Z,42.14
2023-02-07T17:32:58.953Z,42.00
2023-02-07T17:35:28.753Z,42.41
2023-02-07T17:38:00.250Z,42.38
2023-02-07T17:40:31.563Z,42.61
2023-02-07T17:43:00.361Z,42.83
2023-02-07T17:45:30.441Z,42.00
2023-02-07T17:47:59.037Z,42.59
2023-02-07T17:50:31.513Z,42.10
2023-02-07T17:53:02.345Z,42.64
2023-02-07T17:55:32.336Z,42.08
2023-02-07T17:58:02.192Z,42.57
2023-02-07T18:00:33.626Z,43.03
2023-02-07T18:03:02.255Z,42.88
2023-02-07T18:05:31.823Z,43.37
2023-02-07T18:08:01.585Z,43.53
2023-02-07T18:10:33.114Z,44.17
2023-02-07T18:13:02.464Z,44.13
2023-02-07T18:15:31.294Z,44.18
2023-02-07T18:17:59.923Z,44.14
2023-02-07T18:20:33.700Z,44.49
2023-02-07T18:23:04.135Z,44.36
2023-02-07T18:25:32.759Z,44.80
2023-02-07T18:28:01.585Z,45.06
2023-02-07T18:30:31.058Z,45.42
2023-02-07T18:33:00.056Z,44.43
2023-02-07T18:35:28.731Z,44.90
2023-02-07T18:37:56.986Z,44.85
2023-02-07T18:40:26.935Z,44.79
2023-02-07T18:42:56.603Z,45.00
2023-02-07T18:45:25.724Z,45.22
2023-02-07T18:47:54.281Z,45.77
2023-02-07T18:50:23.364Z,45.96
2023-02-07T18:52:52.520Z,45.59
2023-02-07T18:55:21.388Z,46.18
2023-02-07T18:57:51.559Z,45.91
2023-02-07T19:00:21.286Z,45.52
2023-02-07T19:02:49.990Z,45.83
2023-02-07T19:05:18.635Z,46.58
2023-02-07T19:07:47.750Z,46.99
2023-02-07T19:10:17.099Z,46.70
2023-02-07T19:12:45.828Z,47.70
2023-02-07T19:15:16.103Z,47.89
2023-02-07T19:17:44.986Z,47.64
2023-02-07T19:20:13.756Z,47.55
2023-02-07T19:22:42.728Z,48.23
2023-02-07T19:25:11.270Z,47.88
2023-02-07T19:27:39.921Z,48.58
2023-02-07T19:30:10.014Z,48.81
2023-02-07T19:32:40.638Z,49.16
2023-02-07T19:35:09.626Z,49.25
2023-02-07T19:37:37.948Z,49.49
2023-02-07T19:40:07.589Z,50.07
2023-02-07T19:42:36.120Z,49.81
2023-02-07T19:45:04.966Z,50.57
2023-02-07T19:47:33.328Z,51.33
2023-02-07T19:50:06.109Z,51.49
2023-02-07T19:52:34.566Z,51.25
2023-02-07T19:55:02.991Z,52.14
2023-02-07T19:57:33.371Z,51.63
2023-02-07T20:00:01.960Z,51.80
2023-02-07T20:02:33.235Z,52.14
2023-02-07T20:05:03.119Z,52.39
2023-02-07T20:07:31.417Z,52.89
2023-02-07T20:10:01.011Z,52.66
2023-02-07T20:12:29.566Z,52.75
2023-02-07T20:14:57.934Z,52.75
2023-02-07T20:17:26.585Z,53.58
2023-02-07T20:19:54.963Z,53.35
2023-02-07T20:22:24.646Z,52.93
2023-02-07T20:24:55.250Z,53.36
2023-02-07T20:27:29.992Z,53.18
2023-02-07T20:29:58.794Z,53.58
2023-02-07T20:32:27.056Z,53.97
2023-02-07T20:34:55.469Z,53.71
2023-02-07T20:37:25.104Z,53.42
2023-02-07T20:39:53.432Z,53.81
2023-02-07T20:42:21.767Z,53.22
2023-02-07T20:44:50.087Z,53.25
2023-02-07T20:47:18.460Z,53.78
2023-02-07T20:49:46.741Z,54.07
2023-02-07T20:52:15.177Z,54.55
2023-02-07T20:54:45.163Z,54.45
2023-02-07T20:57:13.606Z,54.61
2023-02-07T20:59:42.737Z,54.84
2023-02-07T21:02:12.284Z,55.92
2023-02-07T21:04:41.826Z,55.80
2023-02-07T21:07:11.051Z,55.44
2023-02-07T21:09:39.965Z,55.89
2023-02-07T21:12:10.289Z,56.23
2023-02-07T21:14:38.666Z,56.18
2023-02-07T21:17:07.865Z,56.45
2023-02-07T21:19:37.744Z,56.64
2023-02-07T21:22:07.099Z,56.55
2023-02-07T21:24:35.703Z,56.43
2023-02-07T21:27:05.177Z,56.97
2023-02-07T21:29:36.563Z,56.79
2023-02-07T21:32:05.305Z,56.95
2023-02-07T21:34:33.779Z,56.98
2023-02-07T21:37:02.239Z,56.89
2023-02-07T21:39:30.674Z,57.05
2023-02-07T21:41:59.924Z,57.15
2023-02-07T21:44:29.714Z,57.15
2023-02-07T21:46:59.502Z,57.07
2023-02-07T21:49:27.842Z,57.12
2023-02-07T21:51:56.264Z,57.08
2023-02-07T21:54:24.787Z,57.16
2023-02-07T21:56:53.198Z,57.15
2023-02-07T21:59:22.797Z,57.35
2023-02-07T22:01:52.138Z,57.44
2023-02-07T22:04:22.368Z,57.39
2023-02-07T22:06:51.349Z,57.53
2023-02-07T22:09:22.495Z,57.71
2023-02-07T22:11:52.074Z,57.84
2023-02-07T22:14:21.494Z,58.02
2023-02-07T22:16:52.406Z,58.38
2023-02-07T22:19:22.944Z,58.25
2023-02-07T22:21:51.943Z,58.50
2023-02-07T22:24:21.780Z,58.83
2023-02-07T22:26:50.305Z,59.16
2023-02-07T22:29:18.572Z,59.39
2023-02-07T22:31:47.108Z,59.58
2023-02-07T22:34:16.415Z,59.77
2023-02-07T22:36:47.368Z,59.98
2023-02-07T22:39:18.211Z,60.17
2023-02-07T22:41:47.708Z,59.99
2023-02-07T22:44:16.185Z,60.15
2023-02-07T22:46:44.681Z,60.26
2023-02-07T22:49:13.025Z,60.38
2023-02-07T22:51:41.356Z,60.43
2023-02-07T22:54:18.296Z,60.11
2023-02-07T22:56:47.253Z,60.05
2023-02-07T22:59:15.940Z,60.37
2023-02-07T23:01:45.353Z,60.38
2023-02-07T23:04:17.576Z,60.57
2023-02-07T23:06:46.937Z,60.46
2023-02-07T23:09:17.207Z,60.47
2023-02-07T23:11:45.908Z,60.35
2023-02-07T23:14:16.493Z,60.24
2023-02-07T23:16:44.838Z,60.39
2023-02-07T23:19:16.299Z,60.38
2023-02-07T23:21:45.570Z,60.66
2023-02-07T23:24:14.295Z,60.91
2023-02-07T23:26:44.220Z,60.75
2023-02-07T23:29:12.533Z,61.10
2023-02-07T23:31:40.854Z,60.85
2023-02-07T23:34:10.214Z,61.27
2023-02-07T23:36:39.708Z,61.02
2023-02-07T23:39:08.471Z,61.07
2023-02-07T23:41:37.561Z,61.16
2023-02-07T23:44:07.342Z,61.33
2023-02-07T23:46:36.249Z,61.29
2023-02-07T23:49:05.296Z,61.39
2023-02-07T23:51:33.845Z,61.36
2023-02-07T23:54:02.884Z,61.75
2023-02-07T23:56:31.434Z,61.81
2023-02-07T23:58:59.839Z,61.66
